Archers Lodge, North Carolina
Current Conditions -  °F | °C
As of 7:35 PM on Monday 22 Dec 2014 (Local Time) from KJNX Reporting Station
Overcast Overcast  
Wind Chill: 36°   Ceiling: 400
Heat Index: 41°   Visibility: 10mi
Dew Point: 41°   Wind: 7mph
Humidity: 100%   Direction: 10°N
Pressure: 30.04"   Gusts: NA
Location:  35.6101°N, 78.4715°W
Report Text: KJNX 230035Z AUTO 01006KT 10SM OVC004 05/05 A3004 RMK AO2
Loading
Personal Weather Stations






























Interactive Weather Map New forecast layout! Learn more

10-Day Weather Forecast

Advertisements
Track Severe Weather on mobile